Time;durP1;ratioP1;P1;durP2;ratioP2;P2;SDS_P1;SDS_P2;PMS_P1;PMS_P2;Temp;Humidity;BMP_temperature;BMP_pressure;BME280_temperature;BME280_humidity;BME280_pressure;Samples;Min_cycle;Max_cycle;Signal;HPM_P1;HPM_P2
2023/01/03 00:01:44;;;;;;;121.22;70.18;;;;;;;;;;4961857;28;20031;-87
2023/01/03 00:04:10;;;;;;;122.88;70.78;;;;;;;;;;4961541;28;20440;-87
2023/01/03 00:06:47;;;;;;;117.43;69.93;;;;;;;;;;4961935;28;20287;-87
2023/01/03 00:09:14;;;;;;;107.60;65.25;;;;;;;;;;4962166;28;20030;-87
2023/01/03 00:14:30;;;;;;;102.15;63.90;;;;;;;;;;4961945;28;20043;-87
2023/01/03 00:16:57;;;;;;;113.90;67.22;;;;;;;;;;4960727;29;20094;-87
2023/01/03 00:19:24;;;;;;;126.90;69.85;;;;;;;;;;4960610;29;20119;-87
2023/01/03 00:21:51;;;;;;;123.38;71.07;;;;;;;;;;4961859;28;20159;-87
2023/01/03 00:24:17;;;;;;;135.75;76.88;;;;;;;;;;4961457;28;20061;-88
2023/01/03 00:26:44;;;;;;;134.32;76.43;;;;;;;;;;4960559;28;20429;-88
2023/01/03 00:29:10;;;;;;;131.93;74.55;;;;;;;;;;4960583;29;20023;-88
2023/01/03 00:31:37;;;;;;;139.45;75.65;;;;;;;;;;4960487;29;20051;-88
2023/01/03 00:34:03;;;;;;;138.82;77.80;;;;;;;;;;4961558;28;20082;-87
2023/01/03 00:36:29;;;;;;;140.15;78.00;;;;;;;;;;4961146;28;20067;-88
2023/01/03 00:41:59;;;;;;;165.93;93.85;;;;;;;;;;4961211;28;20436;-87
2023/01/03 00:44:25;;;;;;;182.43;102.45;;;;;;;;;;4961307;28;20046;-88
2023/01/03 00:46:51;;;;;;;188.60;103.63;;;;;;;;;;4960105;29;20023;-88
2023/01/03 00:49:17;;;;;;;192.98;102.65;;;;;;;;;;4960958;28;20035;-88
2023/01/03 00:51:43;;;;;;;185.80;101.43;;;;;;;;;;4959641;29;20030;-88
2023/01/03 00:54:10;;;;;;;171.00;99.75;;;;;;;;;;4961054;28;20027;-88
2023/01/03 00:56:37;;;;;;;168.02;97.70;;;;;;;;;;4959694;29;20043;-89
2023/01/03 00:59:04;;;;;;;155.18;87.80;;;;;;;;;;4961064;28;20114;-88
2023/01/03 01:01:31;;;;;;;147.23;84.85;;;;;;;;;;4961143;28;20031;-89
2023/01/03 01:03:59;;;;;;;133.05;76.90;;;;;;;;;;4960938;28;20027;-89
2023/01/03 01:06:29;;;;;;;118.88;72.40;;;;;;;;;;4960647;28;20055;-89
2023/01/03 01:08:56;;;;;;;121.35;73.15;;;;;;;;;;4960628;28;20027;-89
2023/01/03 01:11:23;;;;;;;112.45;70.65;;;;;;;;;;4959549;29;20041;-90
2023/01/03 01:13:49;;;;;;;122.38;73.13;;;;;;;;;;4959866;29;20035;-88
2023/01/03 01:16:17;;;;;;;126.40;73.07;;;;;;;;;;4959602;29;20051;-89
2023/01/03 01:18:44;;;;;;;118.07;70.75;;;;;;;;;;4959783;29;20031;-89
2023/01/03 01:21:15;;;;;;;120.25;71.93;;;;;;;;;;4960508;28;20034;-88
2023/01/03 01:23:41;;;;;;;123.85;72.80;;;;;;;;;;4940194;29;20304;-88
2023/01/03 01:29:12;;;;;;;108.43;64.10;;;;;;;;;;4941399;29;20023;-89
2023/01/03 01:31:38;;;;;;;100.75;62.35;;;;;;;;;;4940189;29;20027;-89
2023/01/03 01:34:04;;;;;;;94.53;60.20;;;;;;;;;;4948183;29;20019;-90
2023/01/03 01:36:31;;;;;;;96.20;59.45;;;;;;;;;;4959930;28;20054;-90
2023/01/03 01:39:17;;;;;;;91.63;55.63;;;;;;;;;;4959336;29;20035;-89
2023/01/03 01:44:47;;;;;;;89.05;55.10;;;;;;;;;;4960142;29;20134;-89
2023/01/03 01:47:32;;;;;;;97.78;57.15;;;;;;;;;;4959316;28;20043;-89
2023/01/03 01:50:00;;;;;;;95.43;58.83;;;;;;;;;;4958906;28;20042;-89
2023/01/03 01:52:28;;;;;;;93.75;57.03;;;;;;;;;;4959829;28;20469;-88
2023/01/03 01:55:13;;;;;;;104.90;61.50;;;;;;;;;;4959126;28;20042;-87
2023/01/03 01:57:39;;;;;;;91.47;55.55;;;;;;;;;;4958618;28;20047;-87
2023/01/03 02:00:06;;;;;;;100.20;58.15;;;;;;;;;;4959176;28;20031;-88
2023/01/03 02:02:33;;;;;;;82.60;51.75;;;;;;;;;;4958902;28;20122;-87
2023/01/03 02:04:59;;;;;;;77.93;49.63;;;;;;;;;;4958769;28;20426;-87
2023/01/03 02:07:25;;;;;;;82.93;48.03;;;;;;;;;;4959768;28;20024;-87
2023/01/03 02:09:53;;;;;;;75.15;47.28;;;;;;;;;;4958675;28;20035;-87
2023/01/03 02:15:07;;;;;;;83.50;48.53;;;;;;;;;;4959675;29;20045;-88
2023/01/03 02:17:52;;;;;;;76.38;49.08;;;;;;;;;;4959643;28;20331;-89
2023/01/03 02:20:24;;;;;;;82.47;47.83;;;;;;;;;;4958648;28;20071;-89
2023/01/03 02:22:50;;;;;;;;;;;;;;;;;;4959982;28;20095;-88
2023/01/03 02:31:35;;;;;;;88.03;48.47;;;;;;;;;;4959749;28;20037;-88
2023/01/03 02:34:14;;;;;;;85.50;51.33;;;;;;;;;;4958406;28;20078;-88
2023/01/03 02:36:54;;;;;;;93.15;53.42;;;;;;;;;;4958528;29;20303;-89
2023/01/03 02:45:30;;;;;;;98.38;54.53;;;;;;;;;;4959205;29;20082;-88
2023/01/03 02:47:56;;;;;;;97.03;54.42;;;;;;;;;;4946214;29;20058;-87
2023/01/03 02:50:24;;;;;;;90.93;51.30;;;;;;;;;;4963221;28;20106;-88
2023/01/03 02:52:52;;;;;;;87.32;52.88;;;;;;;;;;4963370;28;20023;-88
2023/01/03 02:59:00;;;;;;;97.22;54.65;;;;;;;;;;4922159;29;20118;-87
2023/01/03 03:01:27;;;;;;;100.13;57.83;;;;;;;;;;4943035;29;20074;-88
2023/01/03 03:03:55;;;;;;;109.28;59.80;;;;;;;;;;4943886;29;20039;-88
2023/01/03 03:06:27;;;;;;;102.45;58.75;;;;;;;;;;4944102;29;20145;-88
2023/01/03 03:08:53;;;;;;;101.25;57.75;;;;;;;;;;4943890;29;20048;-89
2023/01/03 03:14:25;;;;;;;98.93;54.42;;;;;;;;;;4943578;29;20382;-89
2023/01/03 03:16:51;;;;;;;95.30;55.15;;;;;;;;;;4959495;29;20407;-88
2023/01/03 03:25:09;;;;;;;100.05;60.00;;;;;;;;;;4962740;29;20460;-88
2023/01/03 03:30:23;;;;;;;102.57;56.88;;;;;;;;;;4962792;29;20091;-88
2023/01/03 03:32:50;;;;;;;99.45;56.60;;;;;;;;;;4962678;28;20035;-88
2023/01/03 03:35:18;;;;;;;98.78;55.72;;;;;;;;;;4962297;28;20035;-89
2023/01/03 03:37:45;;;;;;;96.13;57.10;;;;;;;;;;4962302;28;20039;-89
2023/01/03 03:46:09;;;;;;;93.95;53.92;;;;;;;;;;4962244;29;20045;-89
2023/01/03 03:51:28;;;;;;;;;;;;;;;;;;4962841;29;20043;-88
2023/01/03 03:53:55;;;;;;;86.55;48.80;;;;;;;;;;4961320;29;19907;-88
2023/01/03 03:56:23;;;;;;;85.57;49.15;;;;;;;;;;4961047;29;20031;-88
2023/01/03 03:58:53;;;;;;;77.43;47.60;;;;;;;;;;4961336;28;20027;-88
2023/01/03 04:01:21;;;;;;;81.68;47.65;;;;;;;;;;4960889;29;20138;-88
2023/01/03 04:03:49;;;;;;;82.97;47.65;;;;;;;;;;4961125;29;20085;-88
2023/01/03 04:06:29;;;;;;;83.38;48.38;;;;;;;;;;4960979;29;20034;-88
2023/01/03 04:08:55;;;;;;;95.97;53.28;;;;;;;;;;4961114;29;20027;-87
2023/01/03 04:17:28;;;;;;;109.75;55.50;;;;;;;;;;4942434;29;20043;-88
2023/01/03 04:19:54;;;;;;;97.70;53.97;;;;;;;;;;4941481;29;20031;-88
2023/01/03 04:22:20;;;;;;;89.78;52.63;;;;;;;;;;4941339;29;20151;-88
2023/01/03 04:27:50;;;;;;;83.95;45.80;;;;;;;;;;4942312;29;20062;-88
2023/01/03 04:30:16;;;;;;;77.10;43.45;;;;;;;;;;4941287;29;20425;-88
2023/01/03 04:32:42;;;;;;;68.20;40.60;;;;;;;;;;4958117;29;20043;-88
2023/01/03 04:35:08;;;;;;;67.22;41.15;;;;;;;;;;4960648;29;20330;-89
2023/01/03 04:37:34;;;;;;;61.00;38.03;;;;;;;;;;4961242;28;20411;-88
2023/01/03 04:40:04;;;;;;;68.82;40.67;;;;;;;;;;4961486;28;20118;-88
2023/01/03 04:45:15;;;;;;;60.10;37.42;;;;;;;;;;4961111;28;20050;-89
2023/01/03 04:47:41;;;;;;;59.90;37.13;;;;;;;;;;4961091;28;20292;-88
2023/01/03 04:50:09;;;;;;;62.55;36.80;;;;;;;;;;4960994;28;20027;-88
2023/01/03 04:52:35;;;;;;;59.70;37.78;;;;;;;;;;4961217;28;20043;-89
2023/01/03 04:55:01;;;;;;;60.85;37.42;;;;;;;;;;4959940;29;20031;-88
2023/01/03 04:57:27;;;;;;;63.63;37.97;;;;;;;;;;4960077;29;20028;-88
2023/01/03 04:59:53;;;;;;;67.93;39.20;;;;;;;;;;4960744;28;20061;-88
2023/01/03 05:02:19;;;;;;;63.92;38.42;;;;;;;;;;4961195;28;20031;-88
2023/01/03 05:04:45;;;;;;;64.90;36.33;;;;;;;;;;4959882;29;20038;-88
2023/01/03 05:07:11;;;;;;;62.15;36.47;;;;;;;;;;4961052;28;20406;-88
2023/01/03 05:09:37;;;;;;;60.38;35.30;;;;;;;;;;4959041;28;20019;-89
2023/01/03 05:12:04;;;;;;;58.70;35.15;;;;;;;;;;4960295;28;20034;-89
2023/01/03 05:14:30;;;;;;;56.50;34.45;;;;;;;;;;4959709;29;20048;-89
2023/01/03 05:16:56;;;;;;;63.28;36.95;;;;;;;;;;4959589;29;20027;-89
2023/01/03 05:19:22;;;;;;;61.92;36.13;;;;;;;;;;4960720;28;20023;-89
2023/01/03 05:27:17;;;;;;;57.25;36.38;;;;;;;;;;4960644;29;20143;-88
2023/01/03 05:29:43;;;;;;;56.85;34.83;;;;;;;;;;4959558;29;20023;-87
2023/01/03 05:32:09;;;;;;;53.95;32.53;;;;;;;;;;4960491;28;20402;-88
2023/01/03 05:34:35;;;;;;;47.45;31.73;;;;;;;;;;4959029;29;20354;-89
2023/01/03 05:37:01;;;;;;;45.10;29.70;;;;;;;;;;4959326;29;20414;-87
2023/01/03 05:39:27;;;;;;;48.28;30.33;;;;;;;;;;4960098;28;20444;-88
2023/01/03 05:41:59;;;;;;;48.13;30.55;;;;;;;;;;4960154;28;20119;-87
2023/01/03 05:44:26;;;;;;;49.25;30.25;;;;;;;;;;4959745;28;20082;-87
2023/01/03 05:46:52;;;;;;;51.00;30.98;;;;;;;;;;4958983;29;20065;-89
2023/01/03 05:49:18;;;;;;;49.65;30.92;;;;;;;;;;4959918;28;20425;-87
2023/01/03 05:51:44;;;;;;;55.10;32.00;;;;;;;;;;4960226;28;20402;-88
2023/01/03 05:54:13;;;;;;;59.20;35.20;;;;;;;;;;4960274;28;20419;-88
2023/01/03 05:59:43;;;;;;;66.13;37.13;;;;;;;;;;4959827;29;20123;-88
2023/01/03 06:02:09;;;;;;;67.95;36.85;;;;;;;;;;4959625;28;20023;-87
2023/01/03 06:04:35;;;;;;;67.10;37.55;;;;;;;;;;4958826;29;20106;-88
2023/01/03 06:07:01;;;;;;;71.60;39.42;;;;;;;;;;4959897;28;20078;-89
2023/01/03 06:09:27;;;;;;;73.60;39.40;;;;;;;;;;4960011;28;20057;-88
2023/01/03 06:11:53;;;;;;;89.82;46.78;;;;;;;;;;4959315;28;20481;-88
2023/01/03 06:14:19;;;;;;;88.38;44.78;;;;;;;;;;4959796;28;20043;-88
2023/01/03 06:19:30;;;;;;;78.13;39.85;;;;;;;;;;4959765;29;20047;-88
2023/01/03 06:21:56;;;;;;;81.93;41.63;;;;;;;;;;4959304;28;20023;-89
2023/01/03 06:24:22;;;;;;;64.97;35.50;;;;;;;;;;4959490;28;20027;-89
2023/01/03 06:27:04;;;;;;;69.13;37.03;;;;;;;;;;4959032;28;20024;-89
2023/01/03 06:29:30;;;;;;;70.13;37.77;;;;;;;;;;4958718;29;20023;-89
2023/01/03 06:31:56;;;;;;;75.20;38.92;;;;;;;;;;4958725;29;20034;-89
2023/01/03 06:34:22;;;;;;;80.47;42.08;;;;;;;;;;4959393;28;20019;-89
2023/01/03 06:36:48;;;;;;;79.95;43.38;;;;;;;;;;4959180;28;20039;-89
2023/01/03 06:39:14;;;;;;;122.10;64.68;;;;;;;;;;4958426;28;20046;-88
2023/01/03 06:41:40;;;;;;;124.43;67.57;;;;;;;;;;4958768;28;20068;-89
2023/01/03 06:44:06;;;;;;;118.65;63.22;;;;;;;;;;4959283;28;20122;-89
2023/01/03 06:54:48;;;;;;;97.65;55.80;;;;;;;;;;4959323;29;20452;-89
2023/01/03 06:57:14;;;;;;;128.57;69.72;;;;;;;;;;4959453;28;20035;-87
2023/01/03 06:59:40;;;;;;;194.30;99.38;;;;;;;;;;4959180;28;20134;-88
2023/01/03 07:02:06;;;;;;;144.40;78.50;;;;;;;;;;4959521;28;20037;-87
2023/01/03 07:04:32;;;;;;;99.28;55.08;;;;;;;;;;4958264;29;20023;-88
2023/01/03 07:06:58;;;;;;;82.80;47.22;;;;;;;;;;4959138;28;20019;-87
2023/01/03 07:09:24;;;;;;;68.88;42.03;;;;;;;;;;4958912;28;20058;-88
2023/01/03 07:11:51;;;;;;;76.13;41.13;;;;;;;;;;4958122;28;20066;-88
2023/01/03 07:14:17;;;;;;;63.65;37.22;;;;;;;;;;4958807;28;20039;-87
2023/01/03 07:16:47;;;;;;;57.42;35.65;;;;;;;;;;4958867;28;20118;-87
2023/01/03 07:19:17;;;;;;;60.90;35.10;;;;;;;;;;4959059;28;20031;-88
2023/01/03 07:21:44;;;;;;;61.22;37.50;;;;;;;;;;4958798;28;20037;-88
2023/01/03 07:24:17;;;;;;;60.28;36.38;;;;;;;;;;4958794;28;20062;-88
2023/01/03 07:30:02;;;;;;;53.83;32.70;;;;;;;;;;4959308;29;20041;-88
2023/01/03 07:32:28;;;;;;;58.23;35.13;;;;;;;;;;4957935;28;20023;-88
2023/01/03 07:34:54;;;;;;;63.58;40.88;;;;;;;;;;4960950;29;20278;-88
2023/01/03 07:37:20;;;;;;;69.90;40.55;;;;;;;;;;4962420;28;20059;-88
2023/01/03 07:39:46;;;;;;;74.45;42.78;;;;;;;;;;4961387;29;20125;-89
2023/01/03 07:44:57;;;;;;;54.38;33.45;;;;;;;;;;4961935;29;20051;-88
2023/01/03 07:47:23;;;;;;;47.65;29.42;;;;;;;;;;4961203;28;20020;-88
2023/01/03 07:49:49;;;;;;;48.03;29.65;;;;;;;;;;4962255;28;20031;-88
2023/01/03 07:52:15;;;;;;;44.42;28.73;;;;;;;;;;4961982;28;20025;-88
2023/01/03 07:54:41;;;;;;;43.10;30.02;;;;;;;;;;4962207;28;20035;-88
2023/01/03 07:57:07;;;;;;;45.53;30.30;;;;;;;;;;4962082;28;20027;-87
2023/01/03 07:59:33;;;;;;;65.55;36.78;;;;;;;;;;4961653;28;20418;-88
2023/01/03 08:01:59;;;;;;;62.08;35.47;;;;;;;;;;4961693;28;20414;-88
2023/01/03 08:04:25;;;;;;;45.85;29.27;;;;;;;;;;4961990;28;20059;-87
2023/01/03 08:06:51;;;;;;;45.65;29.60;;;;;;;;;;4962149;28;20050;-86
2023/01/03 08:18:50;;;;;;;42.10;26.08;;;;;;;;;;4942720;29;20034;-87
2023/01/03 08:21:17;;;;;;;43.85;27.75;;;;;;;;;;4945039;29;20023;-87
2023/01/03 08:23:43;;;;;;;42.75;26.20;;;;;;;;;;4972896;28;20049;-86
2023/01/03 08:29:50;;;;;;;42.33;25.13;;;;;;;;;;4977025;28;20433;-89
2023/01/03 08:32:16;;;;;;;41.22;24.25;;;;;;;;;;4960136;28;20047;-88
2023/01/03 08:34:43;;;;;;;43.20;24.83;;;;;;;;;;4961344;28;20122;-90
2023/01/03 08:37:10;;;;;;;41.88;24.98;;;;;;;;;;4960247;29;20406;-88
2023/01/03 08:39:53;;;;;;;40.15;23.90;;;;;;;;;;4951581;29;20035;-86
2023/01/03 08:42:39;;;;;;;50.38;29.00;;;;;;;;;;4960492;28;20050;-88
2023/01/03 08:45:08;;;;;;;44.95;28.30;;;;;;;;;;4960768;28;20027;-87
2023/01/03 08:47:34;;;;;;;44.17;25.35;;;;;;;;;;4961411;28;20077;-87
2023/01/03 08:50:01;;;;;;;45.00;26.77;;;;;;;;;;4961262;28;20099;-88
2023/01/03 08:52:27;;;;;;;40.10;25.08;;;;;;;;;;4960121;28;20023;-87
2023/01/03 08:54:56;;;;;;;36.33;22.60;;;;;;;;;;4960946;28;20434;-87
2023/01/03 08:57:22;;;;;;;34.75;22.67;;;;;;;;;;4960573;28;20042;-87
2023/01/03 08:59:48;;;;;;;35.20;23.05;;;;;;;;;;4960805;28;20138;-88
2023/01/03 09:02:14;;;;;;;38.95;25.10;;;;;;;;;;4960072;28;20074;-88
2023/01/03 09:04:40;;;;;;;36.00;24.23;;;;;;;;;;4959687;28;20033;-89
2023/01/03 09:07:06;;;;;;;39.35;24.63;;;;;;;;;;4960788;28;20118;-90
2023/01/03 09:09:32;;;;;;;36.97;24.38;;;;;;;;;;4960946;28;20023;-89
2023/01/03 09:11:58;;;;;;;41.08;25.50;;;;;;;;;;4960606;28;20039;-89
2023/01/03 09:14:24;;;;;;;43.00;27.05;;;;;;;;;;4959715;29;20039;-88
2023/01/03 09:16:50;;;;;;;37.58;24.33;;;;;;;;;;4959625;29;20023;-88
2023/01/03 09:19:16;;;;;;;45.53;24.17;;;;;;;;;;4959724;28;20032;-89
2023/01/03 09:21:43;;;;;;;34.28;21.83;;;;;;;;;;4960897;28;20027;-88
2023/01/03 09:24:09;;;;;;;37.13;22.92;;;;;;;;;;4960260;28;20418;-89
2023/01/03 09:26:35;;;;;;;36.00;21.27;;;;;;;;;;4960412;28;20030;-88
2023/01/03 09:29:01;;;;;;;36.63;23.08;;;;;;;;;;4960457;28;20027;-88
2023/01/03 09:31:31;;;;;;;35.85;23.95;;;;;;;;;;4959396;29;20465;-89
2023/01/03 09:33:57;;;;;;;39.67;26.55;;;;;;;;;;4960174;28;20027;-90
2023/01/03 09:36:23;;;;;;;43.08;25.23;;;;;;;;;;4960602;28;20110;-90
2023/01/03 09:38:49;;;;;;;31.83;21.25;;;;;;;;;;4963590;28;20026;-89
2023/01/03 09:41:19;;;;;;;36.85;23.65;;;;;;;;;;4968175;28;20035;-88
2023/01/03 09:46:48;;;;;;;31.30;20.25;;;;;;;;;;4960243;29;20034;-88
2023/01/03 09:49:14;;;;;;;27.58;19.48;;;;;;;;;;4959142;28;20031;-88
2023/01/03 10:06:32;;;;;;;40.95;23.25;;;;;;;;;;4940966;29;20050;-88
2023/01/03 10:08:58;;;;;;;37.47;24.20;;;;;;;;;;4923172;29;20118;-88
2023/01/03 10:14:34;;;;;;;25.25;17.73;;;;;;;;;;4938952;29;20039;-88
2023/01/03 10:17:19;;;;;;;35.10;19.40;;;;;;;;;;4938961;29;20031;-87
2023/01/03 10:19:51;;;;;;;42.33;21.80;;;;;;;;;;4938778;28;20086;-88
2023/01/03 10:22:30;;;;;;;26.08;18.30;;;;;;;;;;4938738;29;20034;-89
2023/01/03 10:25:05;;;;;;;28.83;18.85;;;;;;;;;;4938801;29;20042;-88
2023/01/03 10:30:51;;;;;;;48.55;30.20;;;;;;;;;;4938864;29;20055;-87
2023/01/03 10:33:23;;;;;;;41.35;28.10;;;;;;;;;;4938232;29;20039;-88
2023/01/03 10:35:50;;;;;;;;;;;;;;;;;;4939334;29;20062;-89
2023/01/03 10:38:16;;;;;;;27.30;18.60;;;;;;;;;;4957621;29;19953;-88
2023/01/03 10:40:45;;;;;;;51.97;27.25;;;;;;;;;;4957675;28;20039;-88
2023/01/03 10:43:34;;;;;;;31.95;18.95;;;;;;;;;;4957852;29;20054;-88
2023/01/03 10:46:14;;;;;;;30.60;20.60;;;;;;;;;;4948535;29;20048;-90
2023/01/03 10:48:41;;;;;;;39.70;26.73;;;;;;;;;;4939460;29;20024;-88
2023/01/03 10:51:26;;;;;;;29.23;20.20;;;;;;;;;;4940472;29;20054;-92
2023/01/03 10:53:54;;;;;;;27.55;18.42;;;;;;;;;;4940120;29;20030;-87
2023/01/03 10:56:21;;;;;;;143.80;59.70;;;;;;;;;;4939207;29;20042;-88
2023/01/03 10:58:48;;;;;;;83.50;37.95;;;;;;;;;;4939898;29;20031;-86
2023/01/03 11:01:22;;;;;;;23.35;15.38;;;;;;;;;;4940066;29;20047;-88
2023/01/03 11:04:06;;;;;;;27.75;16.85;;;;;;;;;;4940236;29;20043;-90
2023/01/03 11:06:33;;;;;;;20.73;15.18;;;;;;;;;;4940209;29;20051;-89
2023/01/03 11:09:02;;;;;;;30.58;17.80;;;;;;;;;;4940777;29;20055;-89
2023/01/03 11:11:30;;;;;;;29.05;18.90;;;;;;;;;;4942372;29;20028;-90
2023/01/03 11:14:25;;;;;;;27.23;17.92;;;;;;;;;;4944750;29;20036;-88
2023/01/03 11:16:55;;;;;;;53.95;27.23;;;;;;;;;;4941842;29;20040;-85
2023/01/03 11:19:25;;;;;;;24.00;16.63;;;;;;;;;;4941769;29;20394;-87
2023/01/03 11:21:54;;;;;;;26.48;17.58;;;;;;;;;;4942090;29;20032;-85
2023/01/03 11:24:28;;;;;;;21.50;15.68;;;;;;;;;;4941780;29;20434;-89
2023/01/03 11:27:44;;;;;;;21.33;14.38;;;;;;;;;;4927451;29;20114;-87
2023/01/03 11:30:20;;;;;;;25.88;16.60;;;;;;;;;;4922862;29;20056;-88
2023/01/03 11:32:52;;;;;;;24.63;16.33;;;;;;;;;;4923277;29;20091;-87
2023/01/03 11:35:26;;;;;;;29.92;18.27;;;;;;;;;;4941793;29;20061;-87
2023/01/03 11:38:04;;;;;;;56.72;25.48;;;;;;;;;;4941564;29;20067;-88
2023/01/03 11:40:33;;;;;;;55.72;25.30;;;;;;;;;;4941680;29;20430;-88
2023/01/03 11:42:59;;;;;;;53.33;25.02;;;;;;;;;;4941624;29;20330;-89
2023/01/03 11:45:26;;;;;;;27.27;16.05;;;;;;;;;;4941121;29;20134;-87
2023/01/03 11:48:05;;;;;;;39.00;21.48;;;;;;;;;;4941305;29;20028;-87
2023/01/03 11:50:31;;;;;;;20.88;14.95;;;;;;;;;;4941424;29;20028;-88
2023/01/03 11:53:00;;;;;;;24.58;17.30;;;;;;;;;;4937918;29;20423;-89
2023/01/03 11:55:45;;;;;;;24.42;17.38;;;;;;;;;;4961616;28;20065;-88
2023/01/03 11:58:50;;;;;;;71.75;29.15;;;;;;;;;;4961951;28;20032;-87
2023/01/03 12:01:19;;;;;;;83.03;37.67;;;;;;;;;;4921921;29;20442;-88
2023/01/03 12:03:54;;;;;;;70.72;33.92;;;;;;;;;;4922010;29;20107;-87
2023/01/03 12:06:26;;;;;;;70.60;33.85;;;;;;;;;;4921998;29;20028;-88
2023/01/03 12:09:09;;;;;;;51.13;31.10;;;;;;;;;;4922142;29;20050;-88
2023/01/03 12:11:37;;;;;;;67.28;34.40;;;;;;;;;;4921996;29;20035;-88
2023/01/03 12:14:14;;;;;;;54.80;30.50;;;;;;;;;;4921854;29;20091;-89
2023/01/03 12:16:44;;;;;;;84.45;44.88;;;;;;;;;;4921931;29;20032;-89
2023/01/03 12:19:25;;;;;;;96.72;49.63;;;;;;;;;;4938334;29;20036;-88
2023/01/03 12:21:53;;;;;;;86.47;42.35;;;;;;;;;;4941013;29;20422;-89
2023/01/03 12:24:28;;;;;;;84.82;42.95;;;;;;;;;;4940748;29;20040;-88
2023/01/03 12:27:03;;;;;;;87.55;43.72;;;;;;;;;;4940641;29;20032;-88
2023/01/03 12:29:34;;;;;;;36.63;22.67;;;;;;;;;;4924827;29;20027;-88
2023/01/03 12:32:02;;;;;;;81.03;38.90;;;;;;;;;;4951111;29;20442;-88
2023/01/03 12:34:31;;;;;;;99.55;48.33;;;;;;;;;;4961684;28;20076;-88
2023/01/03 12:37:08;;;;;;;75.32;37.45;;;;;;;;;;4953911;28;20070;-89
2023/01/03 12:39:37;;;;;;;189.85;74.72;;;;;;;;;;4960920;28;20046;-89
2023/01/03 12:42:09;;;;;;;45.20;24.95;;;;;;;;;;4960419;28;20055;-88
2023/01/03 12:44:38;;;;;;;49.30;21.97;;;;;;;;;;4960681;29;20120;-90
2023/01/03 12:47:05;;;;;;;50.60;29.15;;;;;;;;;;4960687;29;20352;-88
2023/01/03 12:50:03;;;;;;;42.53;25.77;;;;;;;;;;4960112;29;20066;-88
2023/01/03 12:52:30;;;;;;;63.53;33.60;;;;;;;;;;4924012;29;20055;-88
2023/01/03 12:55:17;;;;;;;53.38;28.00;;;;;;;;;;4940128;29;20048;-87
2023/01/03 12:57:44;;;;;;;60.85;32.83;;;;;;;;;;4924209;29;20458;-87
2023/01/03 13:00:10;;;;;;;72.32;38.60;;;;;;;;;;4939763;29;20474;-88
2023/01/03 13:02:39;;;;;;;65.30;37.15;;;;;;;;;;4939773;29;20481;-87
2023/01/03 13:05:24;;;;;;;60.20;29.75;;;;;;;;;;4923617;29;20083;-88
2023/01/03 13:08:13;;;;;;;36.97;23.50;;;;;;;;;;4938140;29;20039;-88
2023/01/03 13:10:40;;;;;;;39.30;23.60;;;;;;;;;;4888620;29;20426;-88
2023/01/03 13:16:28;;;;;;;65.78;31.77;;;;;;;;;;4921264;29;20122;-89
2023/01/03 13:18:54;;;;;;;49.65;27.88;;;;;;;;;;4905155;29;20024;-89
2023/01/03 13:21:39;;;;;;;49.85;28.60;;;;;;;;;;4920634;29;20047;-89
2023/01/03 13:24:07;;;;;;;53.03;31.67;;;;;;;;;;4896472;29;20051;-90
2023/01/03 13:26:33;;;;;;;39.08;27.08;;;;;;;;;;4901897;29;20040;-91
2023/01/03 13:32:22;;;;;;;55.70;27.80;;;;;;;;;;4899891;29;20027;-88
2023/01/03 13:34:48;;;;;;;;;;;;;;;;;;4902009;29;20032;-89
2023/01/03 13:37:17;;;;;;;66.57;34.90;;;;;;;;;;4886074;29;19931;-89
2023/01/03 13:39:44;;;;;;;67.45;33.30;;;;;;;;;;4886237;29;20431;-91
2023/01/03 13:42:26;;;;;;;51.58;27.50;;;;;;;;;;4886164;29;20119;-89
2023/01/03 13:44:54;;;;;;;63.70;32.90;;;;;;;;;;4885950;29;20044;-89
2023/01/03 13:47:33;;;;;;;52.40;30.08;;;;;;;;;;4923480;29;20031;-90
2023/01/03 13:49:59;;;;;;;71.68;33.47;;;;;;;;;;4959096;29;20106;-89
2023/01/03 13:52:36;;;;;;;47.28;25.83;;;;;;;;;;4959066;29;20035;-89
2023/01/03 13:55:03;;;;;;;51.13;28.48;;;;;;;;;;4960000;28;20024;-88
2023/01/03 13:57:36;;;;;;;61.78;32.95;;;;;;;;;;4959875;28;20027;-88
2023/01/03 14:00:03;;;;;;;42.55;23.88;;;;;;;;;;4964210;28;20049;-88
2023/01/03 14:02:33;;;;;;;42.45;24.58;;;;;;;;;;4959811;28;20066;-88
2023/01/03 14:05:05;;;;;;;51.55;29.02;;;;;;;;;;4958919;29;20059;-88
2023/01/03 14:07:45;;;;;;;34.22;20.23;;;;;;;;;;4959705;29;20420;-86
2023/01/03 14:10:30;;;;;;;55.47;28.73;;;;;;;;;;4959054;28;20035;-87
2023/01/03 14:12:59;;;;;;;44.70;25.10;;;;;;;;;;4958671;29;20027;-87
2023/01/03 14:15:26;;;;;;;45.53;27.52;;;;;;;;;;4959678;29;20122;-87
2023/01/03 14:17:54;;;;;;;63.72;30.67;;;;;;;;;;4958860;29;20027;-88
2023/01/03 14:20:22;;;;;;;40.72;23.38;;;;;;;;;;4958660;29;20031;-89
2023/01/03 14:22:50;;;;;;;116.80;48.95;;;;;;;;;;4958526;28;20027;-89
2023/01/03 14:25:36;;;;;;;94.30;38.13;;;;;;;;;;4959367;28;20414;-88
2023/01/03 14:28:22;;;;;;;91.10;40.30;;;;;;;;;;4959703;28;20023;-89
2023/01/03 14:30:54;;;;;;;75.90;33.33;;;;;;;;;;4958764;29;20019;-88
2023/01/03 14:33:21;;;;;;;;;;;;;;;;;;4959022;29;20035;-89
2023/01/03 14:35:47;;;;;;;86.40;39.17;;;;;;;;;;4960032;28;19933;-89
2023/01/03 14:38:30;;;;;;;70.70;28.75;;;;;;;;;;4959518;28;20027;-89
2023/01/03 14:40:56;;;;;;;57.30;24.83;;;;;;;;;;4958441;28;20083;-89
2023/01/03 14:43:24;;;;;;;76.60;30.27;;;;;;;;;;4979789;28;20118;-89
2023/01/03 14:45:55;;;;;;;120.18;53.97;;;;;;;;;;4981761;28;20041;-90
2023/01/03 14:48:22;;;;;;;57.60;24.80;;;;;;;;;;4981735;28;20023;-88
2023/01/03 14:50:48;;;;;;;75.43;26.17;;;;;;;;;;4981848;28;20031;-89
2023/01/03 14:53:15;;;;;;;56.42;24.40;;;;;;;;;;4982380;28;20030;-88
2023/01/03 14:55:43;;;;;;;61.55;26.85;;;;;;;;;;4981490;28;20031;-91
2023/01/03 14:58:35;;;;;;;42.70;24.90;;;;;;;;;;4981550;28;20038;-89
2023/01/03 15:01:03;;;;;;;79.00;35.90;;;;;;;;;;4979576;28;20062;-90
2023/01/03 15:03:49;;;;;;;66.38;33.90;;;;;;;;;;4982443;28;20373;-89
2023/01/03 15:06:15;;;;;;;142.50;67.68;;;;;;;;;;4982235;28;20031;-89
2023/01/03 15:08:42;;;;;;;52.42;25.65;;;;;;;;;;4981799;28;20035;-89
2023/01/03 15:11:09;;;;;;;42.78;24.67;;;;;;;;;;4982357;28;20402;-89
2023/01/03 15:16:40;;;;;;;61.58;26.33;;;;;;;;;;4982224;28;20041;-88
2023/01/03 15:19:26;;;;;;;80.43;34.08;;;;;;;;;;4982163;28;20029;-88
2023/01/03 15:22:06;;;;;;;150.55;55.88;;;;;;;;;;4981845;28;20027;-88
2023/01/03 15:24:37;;;;;;;87.97;32.88;;;;;;;;;;4982005;28;20031;-88
2023/01/03 15:27:23;;;;;;;66.57;29.77;;;;;;;;;;4981656;28;20027;-88
2023/01/03 15:29:49;;;;;;;66.68;34.03;;;;;;;;;;4967168;28;20031;-88
2023/01/03 15:32:18;;;;;;;100.78;44.40;;;;;;;;;;4962780;28;20027;-88
2023/01/03 15:34:45;;;;;;;54.58;28.00;;;;;;;;;;4962496;28;20041;-89
2023/01/03 15:37:16;;;;;;;73.40;35.08;;;;;;;;;;4961634;29;20042;-88
2023/01/03 15:39:46;;;;;;;135.07;52.13;;;;;;;;;;4961512;29;20065;-89
2023/01/03 15:48:06;;;;;;;74.25;32.38;;;;;;;;;;4962629;29;20118;-89
2023/01/03 15:50:38;;;;;;;80.68;31.65;;;;;;;;;;4961366;29;20027;-88
2023/01/03 15:53:04;;;;;;;60.00;30.63;;;;;;;;;;4961366;29;20219;-89
2023/01/03 15:55:30;;;;;;;50.78;28.88;;;;;;;;;;4961529;28;20043;-88
2023/01/03 15:57:56;;;;;;;70.32;30.98;;;;;;;;;;4962477;28;20031;-89
2023/01/03 16:00:25;;;;;;;150.32;62.85;;;;;;;;;;4961805;28;20473;-90
2023/01/03 16:02:51;;;;;;;97.72;38.42;;;;;;;;;;4961122;29;20061;-89
2023/01/03 16:05:17;;;;;;;109.88;41.33;;;;;;;;;;4962219;28;20115;-89
2023/01/03 16:07:43;;;;;;;147.18;53.38;;;;;;;;;;4961174;29;20023;-89
2023/01/03 16:10:13;;;;;;;109.95;41.83;;;;;;;;;;4961090;29;20027;-88
2023/01/03 16:12:40;;;;;;;130.52;40.15;;;;;;;;;;4961682;28;20118;-88
2023/01/03 16:18:17;;;;;;;132.20;44.72;;;;;;;;;;4961828;29;20065;-89
2023/01/03 16:20:43;;;;;;;100.95;35.88;;;;;;;;;;4960874;28;20032;-88
2023/01/03 16:23:29;;;;;;;85.63;33.13;;;;;;;;;;4960909;29;20027;-89
2023/01/03 16:25:55;;;;;;;82.65;36.22;;;;;;;;;;4960818;29;20062;-89
2023/01/03 16:37:46;;;;;;;87.40;31.95;;;;;;;;;;4961618;29;20055;-89
2023/01/03 16:40:16;;;;;;;118.95;33.60;;;;;;;;;;4961580;28;20385;-88
2023/01/03 16:42:43;;;;;;;81.38;34.58;;;;;;;;;;4961466;28;20074;-89
2023/01/03 16:45:09;;;;;;;95.35;36.83;;;;;;;;;;4960444;29;20028;-88
2023/01/03 16:47:35;;;;;;;62.63;28.60;;;;;;;;;;4960248;29;20028;-88
2023/01/03 16:50:04;;;;;;;52.50;23.52;;;;;;;;;;4960291;29;20019;-88
2023/01/03 16:52:35;;;;;;;81.47;37.67;;;;;;;;;;4961181;28;20054;-88
2023/01/03 16:55:21;;;;;;;107.40;42.70;;;;;;;;;;4961231;28;20097;-89
2023/01/03 16:57:47;;;;;;;81.60;33.60;;;;;;;;;;4924289;29;20036;-89
2023/01/03 17:00:40;;;;;;;58.08;29.23;;;;;;;;;;4930793;29;20035;-89
2023/01/03 17:03:06;;;;;;;;;;;;;;;;;;4931429;29;20051;-88
2023/01/03 17:05:34;;;;;;;62.03;31.20;;;;;;;;;;4940227;29;20249;-88